AirNav   Pilot Hours Calculator
 
 1605 users online  

5CL8 Creekside Airport
Arvin, California, USA

GOING TO ARVIN?


FAA INFORMATION EFFECTIVE 04 NOVEMBER 2021

Location

FAA Identifier: 5CL8
Lat/Long: 35-10-34.1000N 118-55-23.3360W
35-10.568333N 118-55.388933W
35.1761389,-118.9231489
(estimated)
Elevation: 335 ft. / 102 m (estimated)
Variation: 14E (1990)
From city: 5 miles SW of ARVIN, CA
Time zone: UTC -8 (UTC -7 during Daylight Saving Time)
Zip code: 93203

Airport Operations

Airport use: Private use. Permission required prior to landing
Activation date: 10/1994
Control tower: no
ARTCC: LOS ANGELES CENTER
FSS: RANCHO MURIETA FLIGHT SERVICE STATION
Attendance: UNATNDD
Wind indicator: yes
Segmented circle: yes

Airport Communications

WX ASOS at BFL (17 nm NW): PHONE 661-393-3766

Nearby radio navigation aids

VOR radial/distance  VOR name  Freq  Var
EHFr141/20.4SHAFTER VORTAC115.4014E
GMNr336/22.5GORMAN VORTAC116.1016E
LHSr315/34.1LAKE HUGHES VORTAC114.3515E

Airport Services

Runway Information

Runway 16/34

Dimensions: 2000 x 100 ft. / 610 x 30 m
Surface: asphalt/turf
RUNWAY 16  RUNWAY 34
Traffic pattern: leftleft

Airport Ownership and Management from official FAA records

Ownership: Privately-owned
Owner: JAMES F WEBBER
4581 N WHEELER RIDGE RD
ARVIN, CA 93203
Phone 661-333-3776
Manager: JAMES F WEBBER
4581 N WHEELER RIDGE RD
ARVIN, CA 93203
Phone 661-333-3776

Airport Operational Statistics

Aircraft based on the field: 4
Single engine airplanes: 2
Ultralights: 2
    
Aircraft operations: 65/year
92% local general aviation
8% transient general aviation

Additional Remarks

OWNER DESIRES ARPT NOT BE CHARTED.
FOR CD CTC LOS ANGELES ARTCC AT 661-575-2079.

Instrument Procedures

There are no published instrument procedures at 5CL8.

Some nearby airports with instrument procedures:

L45 - Bakersfield Municipal Airport (10 nm N)
KBFL - Meadows Field Airport (17 nm NW)
KMIT - Shafter Airport-Minter Field (24 nm NW)
KDLO - Delano Municipal Airport (37 nm NW)
KMHV - Mojave Air and Space Port (39 nm E)
 
Loc | Ops | Rwys | IFR | FBO | Links
Com | Nav | Svcs | Stats | Notes
Area around 5CL8 (Creekside Airport)
 
Road maps at: MapQuest Bing Google
 
Aerial photo
No photo
 
Sectional chart

 
Airport distance calculator
Flying to Creekside Airport? Find the distance to fly.

From to 5CL8

Sunrise and sunset
Times for 29-Nov-2021
 Local
(UTC-8)
 Zulu
(UTC)
Morning civil twilight06:1714:17
Sunrise06:4514:45
Sunset16:4300:43
Evening civil twilight17:1101:11

Current date and time
Zulu (UTC)  30-Nov-2021 00:12:58
Local (UTC-8)  29-Nov-2021 16:12:58
 
METAR
KBFL 
17nm N 
292354Z 00000KT 3SM HZ CLR 21/03 A3010 RMK AO2 SLP188 T02060033 10211 20144 56012
KTSP 
24nm E 
292355Z AUTO 31009KT 10SM CLR 18/M08 A3019 RMK AO2
KSDB 
28nm S 
292353Z AUTO 02006KT 10SM CLR 21/M09 A3020 RMK AO2 SLP180 T02111094 10239 20200 55007 $
TAF
KBFL 
17nm N 
291720Z 2918/3018 VRB01KT 4SM HZ SKC
NOTAMs
Click for the latest NOTAMs
NOTAMs are issued by the DoD/FAA and will open in a separate window not controlled by AirNav.

 

 
 

Would you like to see your business listed on this page?

 If your business provides an interesting product or service to pilots, flight crews, aircraft, or users of the Creekside Airport, you should consider listing it here.  To start the listing process, click on the button below
 
Add a business
 

Other Pages about Creekside Airport

Update a link
 
Copyright © AirNav, LLC. All rights reserved. Privacy Policy  Contact